createdAt,value
2022-09-29T00:00:57.302Z,93.50
2022-09-29T00:03:24.981Z,93.80
2022-09-29T00:05:54.166Z,94.00
2022-09-29T00:08:23.223Z,94.30
2022-09-29T00:10:50.902Z,94.20
2022-09-29T00:13:19.244Z,93.20
2022-09-29T00:15:58.375Z,94.90
2022-09-29T00:18:26.420Z,95.40
2022-09-29T00:21:02.213Z,95.00
2022-09-29T00:23:31.012Z,94.30
2022-09-29T00:26:06.561Z,94.30
2022-09-29T00:28:35.339Z,94.20
2022-09-29T00:31:04.244Z,93.30
2022-09-29T00:33:33.644Z,94.10
2022-09-29T00:36:07.662Z,94.50
2022-09-29T00:38:35.328Z,95.20
2022-09-29T00:41:03.526Z,95.60
2022-09-29T00:43:58.635Z,95.60
2022-09-29T00:46:49.937Z,95.10
2022-09-29T00:49:31.877Z,94.90
2022-09-29T00:52:05.378Z,94.60
2022-09-29T00:54:40.078Z,94.30
2022-09-29T00:57:11.625Z,94.00
2022-09-29T00:59:43.247Z,94.30
2022-09-29T01:02:10.796Z,95.20
2022-09-29T01:04:38.359Z,95.30
2022-09-29T01:07:06.696Z,94.00
2022-09-29T01:09:38.476Z,94.60
2022-09-29T01:12:06.739Z,94.70
2022-09-29T01:14:36.694Z,93.40
2022-09-29T01:17:06.269Z,92.60
2022-09-29T01:20:13.243Z,93.20
2022-09-29T01:22:58.933Z,93.60
2022-09-29T01:25:49.123Z,93.50
2022-09-29T01:28:22.284Z,91.50
2022-09-29T01:30:51.994Z,92.60
2022-09-29T01:33:48.135Z,92.60
2022-09-29T01:36:18.150Z,91.90
2022-09-29T01:38:53.937Z,93.30
2022-09-29T01:41:41.570Z,93.60
2022-09-29T01:44:33.337Z,93.40
2022-09-29T01:47:12.493Z,93.30
2022-09-29T01:49:47.023Z,92.00
2022-09-29T01:52:27.382Z,91.90
2022-09-29T01:55:02.473Z,93.30
2022-09-29T01:57:44.929Z,93.50
2022-09-29T02:00:18.736Z,93.50
2022-09-29T02:02:48.947Z,92.90
2022-09-29T02:05:25.148Z,92.60
2022-09-29T02:07:55.970Z,94.00
2022-09-29T02:10:49.191Z,93.20
2022-09-29T02:13:18.149Z,94.50
2022-09-29T02:15:52.057Z,95.30
2022-09-29T02:18:23.734Z,94.30
2022-09-29T02:20:51.570Z,93.30
2022-09-29T02:23:19.121Z,93.30
2022-09-29T02:25:49.495Z,93.60
2022-09-29T02:28:18.164Z,94.20
2022-09-29T02:30:48.406Z,93.00
2022-09-29T02:33:24.433Z,93.90
2022-09-29T02:36:23.238Z,95.00
2022-09-29T02:39:18.652Z,96.00
2022-09-29T02:42:24.998Z,95.00
2022-09-29T02:45:01.854Z,93.30
2022-09-29T02:47:52.575Z,94.60
2022-09-29T02:50:32.053Z,94.60
2022-09-29T02:53:05.870Z,94.70
2022-09-29T02:55:57.360Z,94.50
2022-09-29T02:58:48.127Z,94.20
2022-09-29T03:01:16.841Z,93.20
2022-09-29T03:03:44.621Z,94.10
2022-09-29T03:06:13.483Z,93.80
2022-09-29T03:08:40.910Z,93.60
2022-09-29T03:11:08.187Z,93.70
2022-09-29T03:13:35.547Z,93.20
2022-09-29T03:16:03.561Z,93.40
2022-09-29T03:18:31.494Z,93.00
2022-09-29T03:20:59.491Z,92.10
2022-09-29T03:23:27.021Z,92.20
2022-09-29T03:25:54.221Z,93.50
2022-09-29T03:28:21.480Z,95.10
2022-09-29T03:30:50.595Z,95.00
2022-09-29T03:33:18.647Z,94.60
2022-09-29T03:35:45.825Z,94.30
2022-09-29T03:38:13.133Z,94.40
2022-09-29T03:40:40.578Z,94.40
2022-09-29T03:43:07.895Z,94.90
2022-09-29T03:45:39.643Z,95.00
2022-09-29T03:48:08.377Z,95.10
2022-09-29T03:50:35.625Z,95.00
2022-09-29T03:53:03.286Z,94.90
2022-09-29T03:55:31.032Z,94.50
2022-09-29T03:57:58.435Z,94.00
2022-09-29T04:00:25.923Z,92.70
2022-09-29T04:02:57.862Z,93.70
2022-09-29T04:05:25.546Z,94.20
2022-09-29T04:07:52.729Z,94.80
2022-09-29T04:10:19.993Z,95.00
2022-09-29T04:12:47.286Z,94.70
2022-09-29T04:15:14.636Z,94.20
2022-09-29T04:17:42.033Z,94.00
2022-09-29T04:20:09.478Z,94.20
2022-09-29T04:22:36.733Z,94.40
2022-09-29T04:25:05.130Z,93.80
2022-09-29T04:27:32.819Z,94.30
2022-09-29T04:30:01.091Z,94.80
2022-09-29T04:32:28.643Z,95.20
2022-09-29T04:34:55.987Z,95.80
2022-09-29T04:37:23.411Z,95.80
2022-09-29T04:39:53.043Z,96.10
2022-09-29T04:42:21.212Z,96.30
2022-09-29T04:44:48.898Z,95.80
2022-09-29T04:47:17.188Z,95.50
2022-09-29T04:49:44.472Z,95.30
2022-09-29T04:52:12.702Z,94.70
2022-09-29T04:54:40.415Z,95.00
2022-09-29T04:57:08.108Z,96.00
2022-09-29T04:59:35.327Z,95.70
2022-09-29T05:02:03.114Z,96.50
2022-09-29T05:04:31.265Z,95.80
2022-09-29T05:06:58.504Z,96.60
2022-09-29T05:09:28.746Z,97.00
2022-09-29T05:11:58.697Z,96.90
2022-09-29T05:14:26.051Z,96.20
2022-09-29T05:16:55.838Z,95.40
2022-09-29T05:19:23.117Z,95.30
2022-09-29T05:21:50.830Z,94.40
2022-09-29T05:24:18.080Z,95.40
2022-09-29T05:26:45.406Z,95.90
2022-09-29T05:29:12.726Z,96.00
2022-09-29T05:31:40.019Z,96.90
2022-09-29T05:34:07.561Z,96.50
2022-09-29T05:36:34.798Z,96.10
2022-09-29T05:39:03.041Z,96.20
2022-09-29T05:41:31.827Z,96.10
2022-09-29T05:44:01.485Z,95.70
2022-09-29T05:46:29.166Z,94.10
2022-09-29T05:48:58.800Z,93.20
2022-09-29T05:51:29.896Z,93.50
2022-09-29T05:53:57.261Z,92.60
2022-09-29T05:56:26.464Z,94.00
2022-09-29T05:58:54.417Z,94.20
2022-09-29T06:01:25.010Z,93.70
2022-09-29T06:03:55.167Z,93.20
2022-09-29T06:06:27.505Z,92.70
2022-09-29T06:08:57.740Z,93.30
2022-09-29T06:11:27.943Z,93.90
2022-09-29T06:13:56.420Z,94.00
2022-09-29T06:16:29.753Z,94.20
2022-09-29T06:18:59.325Z,94.20
2022-09-29T06:21:28.949Z,94.60
2022-09-29T06:23:58.028Z,94.30
2022-09-29T06:26:27.097Z,94.70
2022-09-29T06:28:55.576Z,94.40
2022-09-29T06:31:26.476Z,94.60
2022-09-29T06:33:56.614Z,95.80
2022-09-29T06:36:58.488Z,96.20
2022-09-29T06:39:26.154Z,95.90
2022-09-29T06:41:55.175Z,97.00
2022-09-29T06:44:24.958Z,97.40
2022-09-29T06:46:52.965Z,97.30
2022-09-29T06:49:21.311Z,97.20
2022-09-29T06:51:49.258Z,96.80
2022-09-29T06:54:20.551Z,94.80
2022-09-29T06:56:51.836Z,93.50
2022-09-29T06:59:19.521Z,93.20
2022-09-29T07:01:51.457Z,92.20
2022-09-29T07:04:20.754Z,92.80
2022-09-29T07:06:49.578Z,92.80
2022-09-29T07:09:17.086Z,92.80
2022-09-29T07:11:47.140Z,92.30
2022-09-29T07:14:16.069Z,91.40
2022-09-29T07:16:44.225Z,90.70
2022-09-29T07:19:11.585Z,89.70
2022-09-29T07:21:38.884Z,89.50
2022-09-29T07:24:07.260Z,89.40
2022-09-29T07:26:34.704Z,89.50
2022-09-29T07:29:02.485Z,88.60
2022-09-29T07:31:32.127Z,88.10
2022-09-29T07:34:03.337Z,87.00
2022-09-29T07:36:31.529Z,86.40
2022-09-29T07:38:58.840Z,86.40
2022-09-29T07:41:26.613Z,88.00
2022-09-29T07:43:54.312Z,88.90
2022-09-29T07:46:22.259Z,88.70
2022-09-29T07:48:49.595Z,88.40
2022-09-29T07:51:19.510Z,88.50
2022-09-29T07:53:47.732Z,88.10
2022-09-29T07:56:18.579Z,88.70
2022-09-29T07:58:47.873Z,87.40
2022-09-29T08:01:16.433Z,87.60
2022-09-29T08:03:52.828Z,88.10
2022-09-29T08:06:24.160Z,86.50
2022-09-29T08:09:03.460Z,85.70
2022-09-29T08:11:33.379Z,82.00
2022-09-29T08:14:02.443Z,82.40
2022-09-29T08:16:31.715Z,83.30
2022-09-29T08:19:00.355Z,81.90
2022-09-29T08:21:30.184Z,81.50
2022-09-29T08:23:57.951Z,83.30
2022-09-29T08:26:38.780Z,83.00
2022-09-29T08:29:15.600Z,84.70
2022-09-29T08:31:46.483Z,83.60
2022-09-29T08:34:14.789Z,82.50
2022-09-29T08:36:42.470Z,80.90
2022-09-29T08:39:11.576Z,80.00
2022-09-29T08:41:56.752Z,79.30
2022-09-29T08:44:39.335Z,79.10
2022-09-29T08:47:26.409Z,76.40
2022-09-29T08:50:14.146Z,76.30
2022-09-29T08:52:52.021Z,76.40
2022-09-29T08:55:23.869Z,73.80
2022-09-29T08:57:59.660Z,75.30
2022-09-29T09:00:52.629Z,75.40
2022-09-29T09:03:46.113Z,74.40
2022-09-29T09:06:42.727Z,75.30
2022-09-29T09:09:12.841Z,76.60
2022-09-29T09:12:15.178Z,78.30
2022-09-29T09:15:14.650Z,77.70
2022-09-29T09:18:03.320Z,77.60
2022-09-29T09:20:36.981Z,77.70
2022-09-29T09:23:14.285Z,77.90
2022-09-29T09:25:53.615Z,77.10
2022-09-29T09:28:32.493Z,77.00
2022-09-29T09:31:16.479Z,78.00
2022-09-29T09:34:05.699Z,78.70
2022-09-29T09:37:04.063Z,79.20
2022-09-29T09:39:37.864Z,79.50
2022-09-29T09:42:15.157Z,79.70
2022-09-29T09:44:50.489Z,76.70
2022-09-29T09:47:37.083Z,76.50
2022-09-29T09:50:15.816Z,76.80
2022-09-29T09:52:51.964Z,72.10
2022-09-29T09:55:26.492Z,72.10
2022-09-29T09:58:32.975Z,72.50
2022-09-29T10:01:08.107Z,72.70
2022-09-29T10:03:37.271Z,72.80
2022-09-29T10:06:07.832Z,74.30
2022-09-29T10:08:39.936Z,74.20
2022-09-29T10:11:28.086Z,75.90
2022-09-29T10:14:10.828Z,76.50
2022-09-29T10:16:49.732Z,80.70
2022-09-29T10:19:44.206Z,78.70
2022-09-29T10:25:07.838Z,81.90
2022-09-29T10:27:40.353Z,81.90
2022-09-29T10:30:23.850Z,79.40
2022-09-29T10:33:00.230Z,81.20
2022-09-29T10:35:35.854Z,81.10
2022-09-29T10:38:08.064Z,79.00
2022-09-29T10:40:35.852Z,79.80
2022-09-29T10:43:27.138Z,74.20
2022-09-29T10:45:58.793Z,74.80
2022-09-29T10:48:27.784Z,73.90
2022-09-29T10:50:58.511Z,74.10
2022-09-29T10:53:43.754Z,73.10
2022-09-29T10:56:23.492Z,69.60
2022-09-29T10:59:05.563Z,71.00
2022-09-29T11:01:46.104Z,66.20
2022-09-29T11:04:41.257Z,67.40
2022-09-29T11:07:13.056Z,68.40
2022-09-29T11:09:42.540Z,69.20
2022-09-29T11:12:32.187Z,70.40
2022-09-29T11:15:01.505Z,69.60
2022-09-29T11:17:39.870Z,71.30
2022-09-29T11:20:15.466Z,71.90
2022-09-29T11:22:51.919Z,75.70
2022-09-29T11:26:02.870Z,73.30
2022-09-29T11:28:49.958Z,72.30
2022-09-29T11:31:20.173Z,73.50
2022-09-29T11:34:15.488Z,74.30
2022-09-29T11:36:50.282Z,73.40
2022-09-29T11:39:36.577Z,70.80
2022-09-29T11:42:35.349Z,69.10
2022-09-29T11:45:09.006Z,70.70
2022-09-29T11:48:27.373Z,67.30
2022-09-29T11:51:38.743Z,67.80
2022-09-29T11:54:45.656Z,65.00
2022-09-29T11:57:38.395Z,65.70
2022-09-29T12:00:13.220Z,67.30
2022-09-29T12:03:22.030Z,67.00
2022-09-29T12:06:20.292Z,68.20
2022-09-29T12:09:07.729Z,68.20
2022-09-29T12:11:54.789Z,68.00
2022-09-29T12:14:54.303Z,69.20
2022-09-29T12:17:23.748Z,72.30
2022-09-29T12:20:07.621Z,73.80
2022-09-29T12:22:36.943Z,75.50
2022-09-29T12:25:13.767Z,76.60
2022-09-29T12:27:42.868Z,77.30
2022-09-29T12:30:20.874Z,78.70
2022-09-29T12:33:03.608Z,78.80
2022-09-29T12:35:55.732Z,77.80
2022-09-29T12:38:35.354Z,77.40
2022-09-29T12:41:16.794Z,78.20
2022-09-29T12:43:48.378Z,77.40
2022-09-29T12:46:31.521Z,78.40
2022-09-29T12:49:34.564Z,77.40
2022-09-29T12:52:05.805Z,80.10
2022-09-29T12:54:40.494Z,79.10
2022-09-29T12:57:21.089Z,82.30
2022-09-29T13:00:10.818Z,82.90
2022-09-29T13:02:57.381Z,84.00
2022-09-29T13:05:27.626Z,83.80
2022-09-29T13:08:19.635Z,84.70
2022-09-29T13:11:03.535Z,84.20
2022-09-29T13:13:51.789Z,84.30
2022-09-29T13:16:22.260Z,84.80
2022-09-29T13:19:00.062Z,85.10
2022-09-29T13:22:01.234Z,85.30
2022-09-29T13:25:24.105Z,85.60
2022-09-29T13:27:54.895Z,86.40
2022-09-29T13:30:30.087Z,86.20
2022-09-29T13:33:04.556Z,87.30
2022-09-29T13:35:47.401Z,86.90
2022-09-29T13:38:26.536Z,87.50
2022-09-29T13:41:13.802Z,88.20
2022-09-29T13:44:04.697Z,88.40
2022-09-29T13:46:32.624Z,88.70
2022-09-29T13:49:12.719Z,88.60
2022-09-29T13:55:40.176Z,84.30
2022-09-29T13:58:31.626Z,80.20
2022-09-29T14:01:01.801Z,85.00
2022-09-29T14:03:45.461Z,83.90
2022-09-29T14:09:16.596Z,81.10
2022-09-29T14:11:49.634Z,80.90
2022-09-29T14:15:11.603Z,81.20
2022-09-29T14:17:51.185Z,81.30
2022-09-29T14:20:30.270Z,82.50
2022-09-29T14:23:01.643Z,82.60
2022-09-29T14:25:50.036Z,83.10
2022-09-29T14:28:26.158Z,83.50
2022-09-29T14:30:58.902Z,84.20
2022-09-29T14:33:41.397Z,86.30
2022-09-29T14:36:15.058Z,86.10
2022-09-29T14:39:02.826Z,89.10
2022-09-29T14:41:42.874Z,89.60
2022-09-29T14:44:19.816Z,89.80
2022-09-29T14:47:20.421Z,86.90
2022-09-29T14:50:22.038Z,86.20
2022-09-29T14:53:01.036Z,85.60
2022-09-29T14:55:43.064Z,86.60
2022-09-29T14:58:13.819Z,85.80
2022-09-29T15:01:12.830Z,86.10
2022-09-29T15:03:52.025Z,85.50
2022-09-29T15:06:22.266Z,85.40
2022-09-29T15:09:03.032Z,86.80
2022-09-29T15:11:43.545Z,88.60
2022-09-29T15:14:26.815Z,90.40
2022-09-29T15:17:29.450Z,91.40
2022-09-29T15:20:03.919Z,88.80
2022-09-29T15:22:52.888Z,88.40
2022-09-29T15:25:29.787Z,86.00
2022-09-29T15:28:04.368Z,88.00
2022-09-29T15:30:32.279Z,87.20
2022-09-29T15:33:20.434Z,88.70
2022-09-29T15:35:52.501Z,87.70
2022-09-29T15:38:25.603Z,88.30
2022-09-29T15:41:03.803Z,86.60
2022-09-29T15:43:44.593Z,85.30
2022-09-29T15:46:21.735Z,85.10
2022-09-29T15:49:18.667Z,82.50
2022-09-29T15:51:59.856Z,80.90
2022-09-29T15:54:40.764Z,76.90
2022-09-29T15:57:43.834Z,74.00
2022-09-29T16:00:23.094Z,72.90
2022-09-29T16:03:10.252Z,77.40
2022-09-29T16:05:44.681Z,81.80
2022-09-29T16:08:23.375Z,86.90
2022-09-29T16:11:00.632Z,88.20
2022-09-29T16:13:31.261Z,88.50
2022-09-29T16:16:10.272Z,89.00
2022-09-29T16:18:48.079Z,90.80
2022-09-29T16:21:22.952Z,91.30
2022-09-29T16:24:14.954Z,91.30
2022-09-29T16:26:49.171Z,90.50
2022-09-29T16:29:16.448Z,89.60
2022-09-29T16:31:53.076Z,89.40
2022-09-29T16:34:23.350Z,88.50
2022-09-29T16:37:18.114Z,89.40
2022-09-29T16:39:48.255Z,90.50
2022-09-29T16:42:27.232Z,89.40
2022-09-29T16:44:56.252Z,91.00
2022-09-29T16:47:29.181Z,90.30
2022-09-29T16:50:13.602Z,90.10
2022-09-29T16:52:48.408Z,91.80
2022-09-29T16:55:21.779Z,93.60
2022-09-29T16:57:55.728Z,94.00
2022-09-29T17:00:23.401Z,94.00
2022-09-29T17:02:57.874Z,93.30
2022-09-29T17:05:26.378Z,90.70
2022-09-29T17:08:13.078Z,93.20
2022-09-29T17:10:40.761Z,94.10
2022-09-29T17:13:15.401Z,94.10
2022-09-29T17:15:50.915Z,94.70
2022-09-29T17:18:21.062Z,94.60
2022-09-29T17:20:48.442Z,94.10
2022-09-29T17:23:15.646Z,93.00
2022-09-29T17:25:46.210Z,93.10
2022-09-29T17:28:15.860Z,91.20
2022-09-29T17:30:49.338Z,92.80
2022-09-29T17:33:19.688Z,94.70
2022-09-29T17:35:55.136Z,95.90
2022-09-29T17:38:24.440Z,96.10
2022-09-29T17:41:33.521Z,95.70
2022-09-29T17:44:06.130Z,95.30
2022-09-29T17:46:33.479Z,95.10
2022-09-29T17:49:01.421Z,93.40
2022-09-29T17:51:29.101Z,93.90
2022-09-29T17:53:57.642Z,94.40
2022-09-29T17:56:26.298Z,94.00
2022-09-29T17:58:57.832Z,94.70
2022-09-29T18:01:26.432Z,94.90
2022-09-29T18:04:09.584Z,94.70
2022-09-29T18:06:43.233Z,94.10
2022-09-29T18:09:20.557Z,93.90
2022-09-29T18:11:54.327Z,93.20
2022-09-29T18:14:25.264Z,91.50
2022-09-29T18:16:56.127Z,91.90
2022-09-29T18:19:27.560Z,93.90
2022-09-29T18:21:59.525Z,95.00
2022-09-29T18:24:27.747Z,96.00
2022-09-29T18:27:02.163Z,95.70
2022-09-29T18:29:35.227Z,95.10
2022-09-29T18:32:06.589Z,95.00
2022-09-29T18:34:38.198Z,95.10
2022-09-29T18:37:10.458Z,94.70
2022-09-29T18:39:40.642Z,94.30
2022-09-29T18:42:11.843Z,94.50
2022-09-29T18:44:42.331Z,94.40
2022-09-29T18:47:14.649Z,93.40
2022-09-29T18:49:43.356Z,93.80
2022-09-29T18:52:11.158Z,94.10
2022-09-29T18:54:39.012Z,94.30
2022-09-29T18:57:07.624Z,94.60
2022-09-29T18:59:35.577Z,95.10
2022-09-29T19:02:03.064Z,94.00
2022-09-29T19:04:32.826Z,95.20
2022-09-29T19:07:03.877Z,95.00
2022-09-29T19:09:33.893Z,94.20
2022-09-29T19:12:04.050Z,95.10
2022-09-29T19:14:35.173Z,94.70
2022-09-29T19:17:04.021Z,94.80
2022-09-29T19:19:32.801Z,95.40
2022-09-29T19:22:01.007Z,95.20
2022-09-29T19:24:28.988Z,94.50
2022-09-29T19:26:56.567Z,95.10
2022-09-29T19:29:24.317Z,95.20
2022-09-29T19:31:51.857Z,94.70
2022-09-29T19:34:19.155Z,94.70
2022-09-29T19:36:48.629Z,95.10
2022-09-29T19:39:17.757Z,94.90
2022-09-29T19:41:46.980Z,94.80
2022-09-29T19:44:14.717Z,93.70
2022-09-29T19:46:42.195Z,94.50
2022-09-29T19:49:09.943Z,94.70
2022-09-29T19:51:57.931Z,95.00
2022-09-29T19:54:28.309Z,95.90
2022-09-29T19:57:00.592Z,96.50
2022-09-29T19:59:32.545Z,96.20
2022-09-29T20:02:01.101Z,96.00
2022-09-29T20:04:33.594Z,95.90
2022-09-29T20:07:02.327Z,95.10
2022-09-29T20:09:29.983Z,94.80
2022-09-29T20:11:58.466Z,95.80
2022-09-29T20:14:28.253Z,96.30
2022-09-29T20:16:57.865Z,95.90
2022-09-29T20:19:28.172Z,96.10
2022-09-29T20:21:57.492Z,96.10
2022-09-29T20:24:25.427Z,95.20
2022-09-29T20:26:55.642Z,95.60
2022-09-29T20:29:24.333Z,95.70
2022-09-29T20:31:53.543Z,95.10
2022-09-29T20:34:22.467Z,94.20
2022-09-29T20:36:54.391Z,95.30
2022-09-29T20:39:22.511Z,95.90
2022-09-29T20:41:50.177Z,96.20
2022-09-29T20:44:20.175Z,96.10
2022-09-29T20:46:47.646Z,95.70
2022-09-29T20:49:15.129Z,96.50
2022-09-29T20:51:43.545Z,96.10
2022-09-29T20:54:12.650Z,96.50
2022-09-29T20:56:44.411Z,96.80
2022-09-29T20:59:14.356Z,97.10
2022-09-29T21:01:43.411Z,97.00
2022-09-29T21:04:13.688Z,96.50
2022-09-29T21:06:48.318Z,96.60
2022-09-29T21:09:18.712Z,96.00
2022-09-29T21:11:47.462Z,96.10
2022-09-29T21:14:19.952Z,96.40
2022-09-29T21:16:51.521Z,95.50
2022-09-29T21:19:26.834Z,96.20
2022-09-29T21:21:56.370Z,96.70
2022-09-29T21:24:24.452Z,97.20
2022-09-29T21:26:52.518Z,97.10
2022-09-29T21:29:19.935Z,97.20
2022-09-29T21:31:48.508Z,97.40
2022-09-29T21:34:16.524Z,97.10
2022-09-29T21:36:43.852Z,97.00
2022-09-29T21:39:11.797Z,96.80
2022-09-29T21:41:41.498Z,97.00
2022-09-29T21:44:13.317Z,97.00
2022-09-29T21:46:42.209Z,97.20
2022-09-29T21:49:11.394Z,97.50
2022-09-29T21:51:41.509Z,97.30
2022-09-29T21:54:13.351Z,97.50
2022-09-29T21:56:43.018Z,97.00
2022-09-29T21:59:12.523Z,96.90
2022-09-29T22:01:40.627Z,96.80
2022-09-29T22:04:09.362Z,96.00
2022-09-29T22:06:40.544Z,96.50
2022-09-29T22:09:09.145Z,96.60
2022-09-29T22:11:42.606Z,96.00
2022-09-29T22:14:11.708Z,96.10
2022-09-29T22:16:40.410Z,96.20
2022-09-29T22:19:24.653Z,96.60
2022-09-29T22:21:53.745Z,96.30
2022-09-29T22:24:21.160Z,96.30
2022-09-29T22:26:48.549Z,96.60
2022-09-29T22:29:16.047Z,96.30
2022-09-29T22:31:43.376Z,96.70
2022-09-29T22:34:11.576Z,96.80
2022-09-29T22:36:40.420Z,96.50
2022-09-29T22:39:10.838Z,95.50
2022-09-29T22:41:40.879Z,96.30
2022-09-29T22:44:09.353Z,96.50
2022-09-29T22:46:36.919Z,96.40
2022-09-29T22:49:04.651Z,95.90
2022-09-29T22:51:32.288Z,95.70
2022-09-29T22:53:59.906Z,95.60
2022-09-29T22:56:30.358Z,95.80
2022-09-29T22:59:04.995Z,95.40
2022-09-29T23:01:33.926Z,95.30
2022-09-29T23:04:01.574Z,95.20
2022-09-29T23:06:29.078Z,95.20
2022-09-29T23:08:56.356Z,94.00
2022-09-29T23:11:24.103Z,94.90
2022-09-29T23:13:53.044Z,95.80
2022-09-29T23:16:20.860Z,96.20
2022-09-29T23:18:54.050Z,95.90
2022-09-29T23:21:22.558Z,95.90
2022-09-29T23:23:56.241Z,96.30
2022-09-29T23:26:24.530Z,96.30
2022-09-29T23:28:52.086Z,95.70
2022-09-29T23:31:19.821Z,95.60
2022-09-29T23:33:55.628Z,96.00
2022-09-29T23:36:25.321Z,96.40
2022-09-29T23:39:11.072Z,96.60
2022-09-29T23:41:47.561Z,95.50
2022-09-29T23:44:19.756Z,97.00
2022-09-29T23:46:47.971Z,97.20
2022-09-29T23:49:18.469Z,97.00
2022-09-29T23:51:50.158Z,97.40
2022-09-29T23:54:20.224Z,97.20
2022-09-29T23:56:49.194Z,96.90
2022-09-29T23:59:17.072Z,96.60
